Time;durP1;ratioP1;P1;durP2;ratioP2;P2;SDS_P1;SDS_P2;PMS_P1;PMS_P2;Temp;Humidity;BMP_temperature;BMP_pressure;BME280_temperature;BME280_humidity;BME280_pressure;Samples;Min_cycle;Max_cycle;Signal;HPM_P1;HPM_P2
2022/12/03 00:00:36;;;;;;;8.95;8.02;;;2.60;99.90;;;;;;5033932;28;20403;-73
2022/12/03 00:03:02;;;;;;;9.45;8.45;;;2.70;99.90;;;;;;5033386;28;20379;-73
2022/12/03 00:05:28;;;;;;;8.90;7.82;;;2.70;99.90;;;;;;5034009;28;20383;-73
2022/12/03 00:07:53;;;;;;;9.48;7.95;;;2.60;99.90;;;;;;5033988;28;20443;-73
2022/12/03 00:10:19;;;;;;;9.55;7.70;;;2.50;99.90;;;;;;5033832;28;20402;-73
2022/12/03 00:12:44;;;;;;;10.65;8.77;;;2.40;99.90;;;;;;5033246;28;20395;-71
2022/12/03 00:15:10;;;;;;;11.15;8.45;;;2.30;99.90;;;;;;5033807;28;20409;-73
2022/12/03 00:17:36;;;;;;;8.98;7.55;;;2.40;99.90;;;;;;5033705;28;20383;-73
2022/12/03 00:20:02;;;;;;;10.00;7.73;;;2.30;99.90;;;;;;5031776;28;20478;-73
2022/12/03 00:22:27;;;;;;;8.23;7.25;;;2.40;99.90;;;;;;5033429;28;20892;-73
2022/12/03 00:24:53;;;;;;;8.45;7.50;;;2.30;99.90;;;;;;5033796;28;20382;-74
2022/12/03 00:27:18;;;;;;;8.50;7.38;;;2.30;99.90;;;;;;5034141;28;20387;-73
2022/12/03 00:29:44;;;;;;;10.15;8.50;;;2.30;99.90;;;;;;5033539;28;20517;-73
2022/12/03 00:32:10;;;;;;;8.50;7.60;;;2.40;99.90;;;;;;5033518;28;20407;-73
2022/12/03 00:34:35;;;;;;;10.82;7.75;;;2.40;99.90;;;;;;5032748;28;20387;-73
2022/12/03 00:37:00;;;;;;;9.13;7.83;;;2.50;99.90;;;;;;5033514;28;20391;-73
2022/12/03 00:39:26;;;;;;;10.33;7.67;;;2.40;99.90;;;;;;5033334;28;20386;-74
2022/12/03 00:41:51;;;;;;;12.47;8.40;;;2.40;99.90;;;;;;5033499;28;20393;-74
2022/12/03 00:44:17;;;;;;;10.73;8.10;;;2.50;99.90;;;;;;5032473;28;20383;-74
2022/12/03 00:46:42;;;;;;;10.27;8.60;;;2.50;99.90;;;;;;5033174;28;20754;-73
2022/12/03 00:49:08;;;;;;;10.53;8.50;;;2.50;99.90;;;;;;5033283;28;20777;-74
2022/12/03 00:51:34;;;;;;;10.33;8.37;;;2.40;99.90;;;;;;5033285;28;20390;-74
2022/12/03 00:54:00;;;;;;;9.10;7.70;;;2.30;99.90;;;;;;5032478;28;20935;-74
2022/12/03 00:56:25;;;;;;;11.80;8.55;;;2.40;99.90;;;;;;5051967;22;20459;-70
2022/12/03 00:58:51;;;;;;;10.70;8.18;;;2.40;99.90;;;;;;5072926;28;20750;-69
2022/12/03 01:01:16;;;;;;;10.90;8.20;;;2.30;99.90;;;;;;5054818;28;20740;-70
2022/12/03 01:03:42;;;;;;;8.40;7.28;;;2.30;99.90;;;;;;5072159;28;20828;-70
2022/12/03 01:06:07;;;;;;;9.20;7.32;;;2.30;99.90;;;;;;5071831;28;20927;-70
2022/12/03 01:08:33;;;;;;;9.40;7.60;;;2.20;99.90;;;;;;5071191;28;20479;-69
2022/12/03 01:10:58;;;;;;;9.57;7.95;;;2.20;99.90;;;;;;5072539;28;20750;-70
2022/12/03 01:13:24;;;;;;;9.05;7.60;;;2.20;99.90;;;;;;5072056;28;20392;-70
2022/12/03 01:15:49;;;;;;;8.90;7.47;;;2.20;99.90;;;;;;5072894;28;21022;-70
2022/12/03 01:18:15;;;;;;;10.15;8.05;;;2.00;99.90;;;;;;5072577;28;20388;-70
2022/12/03 01:20:41;;;;;;;10.30;7.80;;;2.10;99.90;;;;;;5070591;28;20418;-71
2022/12/03 01:23:06;;;;;;;10.35;8.13;;;2.10;99.90;;;;;;5053795;28;20392;-70
2022/12/03 01:25:32;;;;;;;10.48;7.90;;;2.00;99.90;;;;;;5072534;28;20438;-70
2022/12/03 01:27:57;;;;;;;9.90;8.23;;;1.90;99.90;;;;;;5072451;28;20430;-70
2022/12/03 01:30:23;;;;;;;10.45;8.27;;;2.00;99.90;;;;;;5072634;28;20380;-71
2022/12/03 01:32:48;;;;;;;10.57;8.45;;;2.00;99.90;;;;;;5071633;28;20451;-70
2022/12/03 01:35:14;;;;;;;11.60;9.02;;;2.00;99.90;;;;;;5054214;28;20895;-71
2022/12/03 01:37:39;;;;;;;11.63;8.75;;;2.10;99.90;;;;;;5072112;28;20407;-71
2022/12/03 01:40:07;;;;;;;10.65;8.30;;;2.10;99.90;;;;;;5072011;28;20453;-71
2022/12/03 01:42:38;;;;;;;10.77;9.10;;;2.10;99.90;;;;;;5071401;28;20380;-70
2022/12/03 01:45:05;;;;;;;11.20;8.05;;;2.20;99.90;;;;;;5072023;28;20375;-70
2022/12/03 01:47:34;;;;;;;11.60;8.80;;;2.10;99.90;;;;;;5071921;28;21011;-70
2022/12/03 01:50:07;;;;;;;13.20;9.10;;;2.20;99.90;;;;;;5071925;28;20421;-70
2022/12/03 01:52:36;;;;;;;11.68;8.93;;;2.20;99.90;;;;;;5071496;28;20478;-70
2022/12/03 01:55:10;;;;;;;12.27;9.13;;;2.20;99.90;;;;;;5071884;28;20395;-71
2022/12/03 01:57:48;;;;;;;12.70;10.00;;;2.20;99.90;;;;;;5071735;28;20482;-71
2022/12/03 02:00:20;;;;;;;13.07;9.77;;;2.20;99.90;;;;;;5071712;28;20443;-71
2022/12/03 02:02:52;;;;;;;13.18;10.23;;;2.10;99.90;;;;;;5071449;28;20423;-70
2022/12/03 02:05:27;;;;;;;12.60;10.25;;;2.10;99.90;;;;;;5071780;28;20856;-71
2022/12/03 02:07:53;;;;;;;13.30;10.33;;;2.10;99.90;;;;;;5071703;28;20453;-70
2022/12/03 02:10:24;;;;;;;14.07;10.65;;;2.00;99.90;;;;;;5071659;28;20399;-70
2022/12/03 02:13:01;;;;;;;11.20;9.63;;;2.00;99.90;;;;;;5070840;28;20499;-70
2022/12/03 02:15:26;;;;;;;11.63;9.60;;;2.00;99.90;;;;;;5071628;28;20391;-70
2022/12/03 02:17:52;;;;;;;12.32;9.90;;;2.00;99.90;;;;;;5071507;28;20462;-70
2022/12/03 02:20:18;;;;;;;11.50;9.68;;;2.00;99.90;;;;;;5069695;28;20882;-70
2022/12/03 02:22:46;;;;;;;12.73;10.40;;;1.80;99.90;;;;;;5070592;28;20390;-70
2022/12/03 02:25:30;;;;;;;10.85;9.55;;;1.90;99.90;;;;;;5071408;28;20415;-70
2022/12/03 02:27:57;;;;;;;12.52;9.80;;;1.90;99.90;;;;;;5071183;28;20885;-70
2022/12/03 02:30:25;;;;;;;11.90;10.18;;;1.80;99.90;;;;;;5053233;28;20936;-70
2022/12/03 02:32:52;;;;;;;13.37;9.93;;;1.80;99.90;;;;;;5070560;28;20447;-70
2022/12/03 02:35:23;;;;;;;13.23;10.30;;;1.80;99.90;;;;;;5071098;28;20391;-70
2022/12/03 02:37:53;;;;;;;15.05;11.00;;;1.80;99.90;;;;;;5070968;28;20885;-70
2022/12/03 02:40:22;;;;;;;12.80;10.40;;;1.80;99.90;;;;;;5053066;28;20889;-70
2022/12/03 02:42:52;;;;;;;11.43;9.48;;;1.90;99.90;;;;;;5070298;28;20416;-70
2022/12/03 02:45:40;;;;;;;14.23;10.15;;;1.80;99.90;;;;;;5070990;28;20927;-70
2022/12/03 02:48:10;;;;;;;12.68;10.60;;;1.80;99.90;;;;;;5070706;28;20770;-70
2022/12/03 02:50:40;;;;;;;13.48;9.80;;;1.80;99.90;;;;;;5071350;28;20408;-70
2022/12/03 02:53:11;;;;;;;12.77;9.80;;;1.80;99.90;;;;;;5070067;28;20384;-70
2022/12/03 02:55:37;;;;;;;13.15;10.13;;;1.90;99.90;;;;;;5070815;28;20406;-70
2022/12/03 02:58:04;;;;;;;15.85;9.75;;;1.90;99.90;;;;;;5070560;28;20474;-70
2022/12/03 03:00:30;;;;;;;12.63;9.63;;;1.70;99.90;;;;;;5052316;28;20408;-71
2022/12/03 03:02:56;;;;;;;11.75;9.80;;;1.60;99.90;;;;;;5069884;28;20870;-71
2022/12/03 03:05:22;;;;;;;11.65;9.10;;;1.60;99.90;;;;;;5070674;28;20897;-71
2022/12/03 03:07:49;;;;;;;13.35;10.30;;;1.70;99.90;;;;;;5070718;28;20387;-71
2022/12/03 03:10:19;;;;;;;13.32;10.02;;;1.70;99.90;;;;;;5070562;28;20824;-71
2022/12/03 03:12:45;;;;;;;13.32;10.05;;;1.70;99.90;;;;;;5050294;28;20395;-70
2022/12/03 03:15:11;;;;;;;11.80;9.33;;;1.70;99.90;;;;;;5070319;28;20467;-70
2022/12/03 03:17:37;;;;;;;12.70;9.50;;;1.60;99.90;;;;;;5070383;28;20459;-70
2022/12/03 03:20:04;;;;;;;13.20;10.20;;;1.70;99.90;;;;;;5070416;28;20483;-70
2022/12/03 03:22:35;;;;;;;12.05;10.38;;;1.60;99.90;;;;;;5069005;28;20483;-70
2022/12/03 03:25:01;;;;;;;11.90;9.88;;;1.50;99.90;;;;;;5070231;28;20814;-70
2022/12/03 03:27:27;;;;;;;12.73;9.70;;;1.50;99.90;;;;;;5070310;28;20407;-70
2022/12/03 03:29:53;;;;;;;13.07;10.00;;;1.60;99.90;;;;;;5069953;28;20409;-69
2022/12/03 03:32:19;;;;;;;10.70;9.60;;;1.70;99.90;;;;;;5052170;28;20391;-69
2022/12/03 03:34:45;;;;;;;13.55;10.20;;;1.60;99.90;;;;;;5069595;28;20399;-70
2022/12/03 03:37:10;;;;;;;11.80;9.57;;;1.70;99.90;;;;;;5070145;28;20462;-70
2022/12/03 03:39:36;;;;;;;12.00;9.93;;;1.90;99.90;;;;;;5070088;28;20383;-70
2022/12/03 03:42:02;;;;;;;12.00;10.07;;;1.90;99.90;;;;;;5070094;28;20375;-70
2022/12/03 03:44:27;;;;;;;12.95;9.88;;;1.70;99.90;;;;;;5069541;28;20445;-70
2022/12/03 03:46:54;;;;;;;11.68;9.20;;;1.70;99.90;;;;;;5070025;28;20407;-70
2022/12/03 03:49:20;;;;;;;13.20;10.38;;;1.70;99.90;;;;;;5070067;28;20383;-70
2022/12/03 03:51:46;;;;;;;10.98;9.00;;;1.60;99.90;;;;;;5069889;28;20475;-70
2022/12/03 03:54:12;;;;;;;12.65;10.20;;;1.50;99.90;;;;;;5069363;28;20479;-70
2022/12/03 03:56:38;;;;;;;13.20;9.60;;;1.50;99.90;;;;;;5069839;28;20826;-70
2022/12/03 03:59:04;;;;;;;13.70;9.50;;;1.60;99.90;;;;;;5070116;28;20375;-70
2022/12/03 04:01:30;;;;;;;12.25;9.80;;;1.80;99.90;;;;;;5070132;28;20407;-70
2022/12/03 04:03:58;;;;;;;12.35;9.93;;;1.80;99.90;;;;;;5069259;28;20795;-70
2022/12/03 04:06:24;;;;;;;13.20;9.77;;;1.70;99.90;;;;;;5069768;28;20394;-70
2022/12/03 04:08:50;;;;;;;13.90;9.30;;;1.70;99.90;;;;;;5069732;28;20528;-70
2022/12/03 04:13:59;;;;;;;12.57;9.77;;;1.60;99.90;;;;;;5069470;28;20386;-70
2022/12/03 04:16:25;;;;;;;12.10;9.57;;;1.60;99.90;;;;;;5069807;28;20379;-70
2022/12/03 04:18:51;;;;;;;13.65;9.80;;;1.60;99.90;;;;;;5069681;28;20383;-70
2022/12/03 04:24:04;;;;;;;13.15;9.48;;;1.70;99.90;;;;;;5069147;28;20423;-70
2022/12/03 04:29:14;;;;;;;11.48;9.43;;;1.60;99.90;;;;;;5069690;28;20418;-70
2022/12/03 04:37:09;;;;;;;9.90;7.90;;;1.60;99.90;;;;;;5069837;28;20793;-70
2022/12/03 04:39:35;;;;;;;10.63;8.77;;;1.60;99.90;;;;;;5069722;28;20387;-70
2022/12/03 04:42:01;;;;;;;11.07;9.23;;;1.60;99.90;;;;;;5071705;28;20380;-70
2022/12/03 04:44:32;;;;;;;10.02;8.80;;;1.60;99.90;;;;;;5072725;28;20418;-70
2022/12/03 04:46:59;;;;;;;11.52;9.15;;;1.60;99.90;;;;;;5073481;28;20379;-70
2022/12/03 04:49:25;;;;;;;10.32;8.60;;;1.50;99.90;;;;;;5073710;28;20888;-70
2022/12/03 04:51:51;;;;;;;11.75;8.88;;;1.50;99.90;;;;;;5073338;28;20423;-70
2022/12/03 04:54:16;;;;;;;10.05;8.95;;;1.60;99.90;;;;;;5072500;28;20892;-69
2022/12/03 04:56:42;;;;;;;12.90;9.80;;;1.60;99.90;;;;;;5073215;28;20419;-70
2022/12/03 04:59:08;;;;;;;12.07;9.40;;;1.50;99.90;;;;;;5071871;28;20455;-70
2022/12/03 05:01:33;;;;;;;11.90;9.70;;;1.40;99.90;;;;;;5072436;28;20404;-70
2022/12/03 05:04:17;;;;;;;11.30;8.87;;;1.40;99.90;;;;;;5072422;28;20387;-73
2022/12/03 05:06:43;;;;;;;11.27;9.25;;;1.50;99.90;;;;;;5048061;28;20396;-70
2022/12/03 05:09:09;;;;;;;10.47;8.50;;;1.50;99.90;;;;;;5073210;28;20723;-70
2022/12/03 05:11:35;;;;;;;10.93;9.40;;;1.50;99.90;;;;;;5073165;28;20380;-70
2022/12/03 05:14:01;;;;;;;10.40;8.50;;;1.90;99.90;;;;;;5072214;28;20731;-70
2022/12/03 05:16:26;;;;;;;10.57;9.10;;;1.90;99.90;;;;;;5072912;28;20418;-70
2022/12/03 05:18:52;;;;;;;9.37;8.17;;;2.00;99.90;;;;;;5072727;28;20862;-71
2022/12/03 05:21:17;;;;;;;10.67;8.40;;;1.90;99.90;;;;;;5072902;28;20403;-71
2022/12/03 05:23:43;;;;;;;8.60;7.70;;;1.90;99.90;;;;;;5071980;28;20419;-71
2022/12/03 05:26:09;;;;;;;10.03;8.43;;;1.60;99.90;;;;;;5072658;28;20384;-71
2022/12/03 05:28:34;;;;;;;9.77;8.73;;;1.50;99.90;;;;;;5072743;28;20978;-71
2022/12/03 05:31:00;;;;;;;9.07;7.80;;;1.60;99.90;;;;;;5072716;28;20397;-71
2022/12/03 05:33:25;;;;;;;10.60;8.95;;;1.50;99.90;;;;;;5063699;28;20479;-71
2022/12/03 05:35:54;;;;;;;11.90;8.75;;;1.50;99.90;;;;;;5071503;28;20391;-72
2022/12/03 05:38:19;;;;;;;9.05;7.97;;;1.60;99.90;;;;;;5070504;28;20750;-72
2022/12/03 05:40:45;;;;;;;10.57;8.88;;;1.50;99.90;;;;;;5072031;28;20453;-71
2022/12/03 05:43:10;;;;;;;10.60;8.43;;;1.60;99.90;;;;;;5070595;28;20437;-69
2022/12/03 05:45:38;;;;;;;10.88;9.15;;;1.60;99.90;;;;;;5072426;28;20466;-71
2022/12/03 05:48:06;;;;;;;10.27;8.80;;;1.80;99.90;;;;;;5072158;28;20379;-71
2022/12/03 05:50:33;;;;;;;9.30;8.13;;;1.60;99.90;;;;;;5072390;28;20870;-69
2022/12/03 05:52:59;;;;;;;10.90;9.02;;;1.60;99.90;;;;;;5067287;28;20455;-71
2022/12/03 05:55:25;;;;;;;10.35;8.88;;;1.70;99.90;;;;;;5069657;28;21616;-72
2022/12/03 05:57:51;;;;;;;9.77;8.13;;;1.70;99.90;;;;;;5053692;28;20412;-70
2022/12/03 06:00:21;;;;;;;11.07;8.70;;;1.60;99.90;;;;;;5071912;28;20408;-71
2022/12/03 06:02:46;;;;;;;10.60;8.80;;;1.60;99.90;;;;;;5071258;28;20401;-70
2022/12/03 06:05:14;;;;;;;11.17;8.70;;;1.60;99.90;;;;;;5069194;28;20388;-71
2022/12/03 06:07:40;;;;;;;10.48;8.50;;;1.50;99.90;;;;;;5054192;28;20435;-71
2022/12/03 06:10:08;;;;;;;12.27;9.68;;;1.50;99.90;;;;;;5069311;28;20467;-70
2022/12/03 06:12:33;;;;;;;13.55;9.15;;;1.60;99.90;;;;;;5071090;28;20931;-70
2022/12/03 06:14:59;;;;;;;10.60;8.60;;;1.60;99.90;;;;;;5071640;28;20415;-70
2022/12/03 06:17:25;;;;;;;9.60;8.60;;;1.50;99.90;;;;;;5071905;28;20388;-72
2022/12/03 06:19:54;;;;;;;12.40;10.18;;;1.50;99.90;;;;;;5071601;28;20878;-71
2022/12/03 06:22:19;;;;;;;11.40;9.63;;;1.50;99.90;;;;;;5071777;28;20402;-72
2022/12/03 06:24:45;;;;;;;12.32;9.30;;;1.60;99.90;;;;;;5070801;28;20371;-72
2022/12/03 06:27:12;;;;;;;12.10;9.90;;;1.60;99.90;;;;;;5071268;28;20399;-70
2022/12/03 06:29:37;;;;;;;12.30;9.60;;;1.50;99.90;;;;;;5071739;28;20533;-70
2022/12/03 06:32:04;;;;;;;12.20;9.63;;;1.50;99.90;;;;;;5071553;28;20462;-70
2022/12/03 06:34:30;;;;;;;11.93;9.23;;;1.50;99.90;;;;;;5070782;28;20468;-71
2022/12/03 06:36:59;;;;;;;11.48;8.95;;;1.50;99.90;;;;;;5053323;28;20450;-70
2022/12/03 06:39:24;;;;;;;12.80;9.25;;;1.40;99.90;;;;;;5051315;28;20394;-69
2022/12/03 06:41:50;;;;;;;11.60;8.70;;;1.40;99.90;;;;;;5068808;28;20419;-71
2022/12/03 06:44:16;;;;;;;10.50;8.70;;;1.60;99.90;;;;;;5070186;28;20387;-71
2022/12/03 06:46:41;;;;;;;10.33;8.20;;;1.60;99.90;;;;;;5052416;28;20379;-71
2022/12/03 06:49:09;;;;;;;11.30;8.23;;;1.50;99.90;;;;;;5070288;28;20443;-71
2022/12/03 06:51:36;;;;;;;9.95;8.10;;;1.40;99.90;;;;;;5070817;28;20406;-72
2022/12/03 06:54:02;;;;;;;12.27;9.13;;;1.40;99.90;;;;;;5069750;28;20741;-71
2022/12/03 06:56:28;;;;;;;11.57;9.05;;;1.40;99.90;;;;;;5070328;28;20402;-71
2022/12/03 06:58:53;;;;;;;10.95;9.40;;;1.40;99.90;;;;;;5070540;28;20870;-71
2022/12/03 07:01:19;;;;;;;10.32;8.45;;;1.40;99.90;;;;;;5052129;28;20770;-71
2022/12/03 07:03:45;;;;;;;11.93;9.20;;;1.40;99.90;;;;;;5088483;22;20434;-72
2022/12/03 07:06:11;;;;;;;12.60;9.23;;;1.40;99.90;;;;;;5068359;28;20387;-71
2022/12/03 07:08:36;;;;;;;10.60;8.90;;;1.40;99.90;;;;;;5077650;28;20778;-71
2022/12/03 07:11:02;;;;;;;10.90;8.73;;;1.40;99.90;;;;;;5063585;28;20395;-70
2022/12/03 07:13:27;;;;;;;12.05;8.82;;;1.50;99.90;;;;;;5058642;28;20516;-70
2022/12/03 07:15:53;;;;;;;12.77;9.00;;;1.50;99.90;;;;;;5049333;28;20396;-70
2022/12/03 07:18:18;;;;;;;10.97;8.40;;;1.40;99.90;;;;;;5049728;28;20416;-70
2022/12/03 07:20:44;;;;;;;12.60;9.70;;;1.40;99.90;;;;;;5050418;28;20451;-70
2022/12/03 07:23:09;;;;;;;12.27;10.40;;;1.40;99.90;;;;;;5049026;28;20870;-70
2022/12/03 07:25:35;;;;;;;11.50;9.53;;;1.30;99.90;;;;;;5050024;28;20389;-70
2022/12/03 07:28:00;;;;;;;11.03;9.20;;;1.30;99.90;;;;;;5050270;28;20435;-70
2022/12/03 07:30:26;;;;;;;13.47;10.30;;;1.30;99.90;;;;;;5050119;28;20389;-70
2022/12/03 07:32:52;;;;;;;12.40;9.88;;;1.20;99.90;;;;;;5049619;28;20462;-70
2022/12/03 07:35:18;;;;;;;14.30;10.65;;;1.30;99.90;;;;;;5050513;28;20388;-72
2022/12/03 07:37:43;;;;;;;13.87;10.23;;;1.30;99.90;;;;;;5050398;28;20392;-71
2022/12/03 07:40:10;;;;;;;14.47;10.73;;;1.30;99.90;;;;;;5050454;28;20413;-70
2022/12/03 07:42:35;;;;;;;12.68;9.90;;;1.40;99.90;;;;;;5049616;28;20389;-71
2022/12/03 07:45:01;;;;;;;12.67;10.27;;;1.40;99.90;;;;;;5050433;28;20408;-71
2022/12/03 07:47:26;;;;;;;12.67;10.10;;;1.40;99.90;;;;;;5050523;28;20855;-70
2022/12/03 07:49:52;;;;;;;13.37;10.20;;;1.40;99.90;;;;;;5050682;28;20416;-71
2022/12/03 07:52:17;;;;;;;11.17;9.87;;;1.40;99.90;;;;;;5050239;28;20385;-70
2022/12/03 07:54:43;;;;;;;12.13;9.50;;;1.30;99.90;;;;;;5049957;28;20725;-71
2022/12/03 07:57:08;;;;;;;13.53;9.77;;;1.40;99.90;;;;;;5050439;28;20808;-71
2022/12/03 07:59:34;;;;;;;13.90;10.00;;;1.40;99.90;;;;;;5032548;28;20390;-71
2022/12/03 08:01:59;;;;;;;10.80;9.40;;;1.50;99.90;;;;;;5032610;28;20899;-71
2022/12/03 08:04:25;;;;;;;11.93;9.52;;;1.50;99.90;;;;;;5049513;28;20396;-71
2022/12/03 08:06:50;;;;;;;13.20;10.40;;;1.60;99.90;;;;;;5050786;28;20373;-70
2022/12/03 08:09:16;;;;;;;13.13;10.27;;;1.50;99.90;;;;;;5050174;28;20382;-70
2022/12/03 08:11:43;;;;;;;13.55;9.70;;;1.60;99.90;;;;;;5050226;28;20871;-71
2022/12/03 08:14:12;;;;;;;11.75;9.23;;;1.60;99.90;;;;;;5049403;28;20396;-70
2022/12/03 08:16:39;;;;;;;13.43;10.48;;;1.60;99.90;;;;;;5053167;28;20420;-71
2022/12/03 08:19:09;;;;;;;11.93;10.10;;;1.70;99.90;;;;;;5054226;28;20391;-70
2022/12/03 08:21:35;;;;;;;14.27;9.77;;;1.70;99.90;;;;;;5055194;28;20420;-71
2022/12/03 08:24:21;;;;;;;12.25;10.20;;;1.70;99.90;;;;;;5053333;28;20450;-70
2022/12/03 08:26:48;;;;;;;10.90;9.15;;;1.70;99.90;;;;;;5053762;28;20464;-70
2022/12/03 08:29:16;;;;;;;13.02;10.32;;;1.80;99.90;;;;;;5052832;28;20386;-70
2022/12/03 08:31:48;;;;;;;13.10;9.70;;;2.00;99.90;;;;;;5053856;28;20864;-71
2022/12/03 08:34:19;;;;;;;12.10;9.45;;;1.80;99.90;;;;;;5053061;28;20392;-71
2022/12/03 08:36:46;;;;;;;12.50;9.70;;;2.10;99.90;;;;;;5053894;28;20399;-70
2022/12/03 08:39:39;;;;;;;13.07;9.90;;;1.90;99.90;;;;;;5053885;28;20385;-71
2022/12/03 08:45:30;;;;;;;12.20;9.95;;;2.00;99.90;;;;;;5049596;28;20376;-71
2022/12/03 08:48:12;;;;;;;13.75;9.82;;;2.10;99.90;;;;;;5053693;28;20434;-70
2022/12/03 08:50:39;;;;;;;14.20;10.07;;;2.20;99.90;;;;;;5053513;28;20763;-71
2022/12/03 08:53:32;;;;;;;12.20;10.20;;;2.30;99.90;;;;;;5052799;28;20395;-71
2022/12/03 08:56:24;;;;;;;14.03;10.87;;;2.30;99.90;;;;;;5053482;28;20458;-70
2022/12/03 08:58:59;;;;;;;12.75;9.63;;;2.40;99.90;;;;;;5040134;28;20440;-70
2022/12/03 09:01:30;;;;;;;14.00;10.00;;;2.40;99.90;;;;;;5053364;28;20799;-70
2022/12/03 09:04:14;;;;;;;11.63;9.98;;;2.50;99.90;;;;;;5052345;28;20733;-70
2022/12/03 09:06:39;;;;;;;11.57;9.43;;;2.50;99.90;;;;;;5053350;28;20384;-70
2022/12/03 09:09:05;;;;;;;11.30;9.77;;;2.50;99.90;;;;;;5053193;28;20764;-70
2022/12/03 09:11:30;;;;;;;11.83;9.37;;;2.30;99.90;;;;;;5048104;28;20400;-70
2022/12/03 09:13:56;;;;;;;13.47;10.40;;;2.40;99.90;;;;;;5052336;28;20397;-70
2022/12/03 09:16:21;;;;;;;11.27;9.80;;;2.50;99.90;;;;;;5053109;28;20390;-70
2022/12/03 09:18:47;;;;;;;12.35;10.13;;;2.60;99.90;;;;;;5052906;28;20397;-70
2022/12/03 09:21:12;;;;;;;10.85;9.10;;;2.60;99.90;;;;;;5052680;28;20891;-70
2022/12/03 09:23:38;;;;;;;11.93;9.90;;;2.60;99.90;;;;;;5052109;28;20396;-70
2022/12/03 09:26:04;;;;;;;10.13;8.60;;;2.80;99.90;;;;;;5051937;28;20392;-70
2022/12/03 09:28:29;;;;;;;10.85;9.00;;;2.80;99.90;;;;;;5051937;28;20394;-71
2022/12/03 09:30:55;;;;;;;10.45;8.90;;;2.80;99.90;;;;;;5052716;28;20389;-71
2022/12/03 09:33:20;;;;;;;11.90;9.80;;;2.60;99.90;;;;;;5051851;28;20455;-70
2022/12/03 09:35:46;;;;;;;12.15;10.07;;;2.70;99.90;;;;;;5049238;28;20394;-71
2022/12/03 09:38:12;;;;;;;11.65;9.00;;;2.90;99.90;;;;;;5052362;28;20736;-71
2022/12/03 09:40:38;;;;;;;11.88;9.48;;;2.90;99.90;;;;;;5034388;28;20402;-71
2022/12/03 09:43:04;;;;;;;13.00;9.98;;;3.10;99.90;;;;;;5033676;28;20378;-71
2022/12/03 09:45:29;;;;;;;11.02;9.30;;;3.00;99.90;;;;;;5052505;28;20787;-71
2022/12/03 09:47:55;;;;;;;12.02;9.65;;;3.00;99.90;;;;;;5052612;28;20386;-71
2022/12/03 09:50:24;;;;;;;12.10;9.77;;;2.80;99.90;;;;;;5046756;28;20393;-71
2022/12/03 09:52:53;;;;;;;11.57;8.82;;;2.90;99.90;;;;;;5051491;28;20923;-71
2022/12/03 09:55:24;;;;;;;12.23;9.50;;;2.90;99.90;;;;;;5052338;28;20397;-71
2022/12/03 09:57:54;;;;;;;10.52;8.48;;;3.30;99.90;;;;;;5052506;28;20733;-71
2022/12/03 10:00:26;;;;;;;11.70;9.87;;;3.20;99.90;;;;;;5052520;28;20458;-71
2022/12/03 10:03:11;;;;;;;11.17;9.97;;;2.70;99.90;;;;;;5017249;28;20489;-71
2022/12/03 10:05:37;;;;;;;13.75;10.50;;;2.50;99.90;;;;;;5052176;28;20389;-71
2022/12/03 10:08:09;;;;;;;11.70;10.07;;;2.50;99.90;;;;;;5052254;28;20378;-71
2022/12/03 10:10:36;;;;;;;11.88;9.80;;;2.70;99.90;;;;;;5052010;28;20393;-71
2022/12/03 10:13:03;;;;;;;11.52;9.82;;;2.80;99.90;;;;;;5051092;28;20381;-71
2022/12/03 10:15:29;;;;;;;14.68;10.70;;;2.60;99.90;;;;;;5051958;28;20389;-71
2022/12/03 10:17:56;;;;;;;11.90;9.67;;;2.90;99.90;;;;;;5051857;28;20453;-71
2022/12/03 10:20:23;;;;;;;12.02;9.50;;;3.10;99.90;;;;;;5051799;28;20962;-71
2022/12/03 10:22:49;;;;;;;11.20;8.85;;;3.20;99.90;;;;;;5050946;28;20378;-71
2022/12/03 10:25:18;;;;;;;10.40;9.20;;;3.00;99.90;;;;;;5051842;28;20469;-71
2022/12/03 10:27:57;;;;;;;10.37;9.17;;;3.10;99.90;;;;;;5051696;28;20480;-71
2022/12/03 10:30:25;;;;;;;10.32;9.18;;;3.00;99.90;;;;;;5041826;28;20387;-71
2022/12/03 10:32:51;;;;;;;11.32;9.80;;;2.80;99.90;;;;;;5050414;28;20390;-71
2022/12/03 10:35:23;;;;;;;11.30;9.40;;;3.20;99.90;;;;;;5051667;28;20797;-72
2022/12/03 10:38:03;;;;;;;12.40;9.70;;;3.30;99.90;;;;;;5051626;28;20385;-71
2022/12/03 10:40:35;;;;;;;11.95;9.90;;;3.00;99.90;;;;;;5050763;28;20906;-71
2022/12/03 10:43:22;;;;;;;12.95;10.07;;;2.90;99.90;;;;;;5050893;28;20984;-72
2022/12/03 10:46:01;;;;;;;11.30;9.98;;;3.20;99.90;;;;;;5051544;28;20424;-71
2022/12/03 10:48:27;;;;;;;12.18;10.00;;;3.10;99.90;;;;;;5052185;28;20366;-71
2022/12/03 10:50:55;;;;;;;12.45;10.23;;;2.90;99.90;;;;;;5051653;28;20380;-72
2022/12/03 10:53:31;;;;;;;12.60;10.20;;;2.90;99.90;;;;;;5050494;28;20473;-72
2022/12/03 10:55:59;;;;;;;14.38;10.77;;;2.90;99.90;;;;;;5033498;28;20404;-72
2022/12/03 10:58:36;;;;;;;14.23;11.25;;;2.90;99.90;;;;;;5051345;28;20417;-72
2022/12/03 11:01:12;;;;;;;12.30;10.32;;;3.00;99.90;;;;;;5051119;28;20457;-72
2022/12/03 11:03:37;;;;;;;12.77;10.60;;;3.00;99.90;;;;;;5050417;28;20766;-72
2022/12/03 11:06:03;;;;;;;13.65;10.68;;;3.00;99.90;;;;;;5051090;28;20464;-72
2022/12/03 11:08:35;;;;;;;12.85;10.30;;;3.10;99.90;;;;;;5051160;28;20377;-72
2022/12/03 11:11:28;;;;;;;13.43;10.50;;;3.30;99.90;;;;;;5045758;28;20400;-72
2022/12/03 11:13:56;;;;;;;13.05;10.90;;;2.90;99.90;;;;;;5042262;28;20461;-72
2022/12/03 11:16:40;;;;;;;13.03;10.27;;;3.20;99.90;;;;;;5050476;28;20469;-72
2022/12/03 11:19:12;;;;;;;12.20;10.02;;;3.20;99.90;;;;;;5032713;28;20428;-72
2022/12/03 11:22:05;;;;;;;12.25;10.35;;;3.40;99.90;;;;;;5050894;28;20412;-72
2022/12/03 11:24:38;;;;;;;12.38;10.10;;;3.30;99.90;;;;;;5047780;28;20381;-71
2022/12/03 11:27:13;;;;;;;13.73;11.75;;;3.40;99.90;;;;;;5032410;28;20887;-72
2022/12/03 11:29:58;;;;;;;12.13;10.30;;;3.30;99.90;;;;;;5050805;28;20476;-72
2022/12/03 11:32:58;;;;;;;12.32;9.98;;;3.40;99.90;;;;;;5050238;28;20469;-72
2022/12/03 11:35:23;;;;;;;13.07;10.73;;;3.50;99.90;;;;;;5050605;28;20452;-72
2022/12/03 11:37:49;;;;;;;13.40;10.60;;;3.50;99.90;;;;;;5050573;28;20469;-72
2022/12/03 11:40:17;;;;;;;13.27;10.97;;;3.60;99.90;;;;;;5050643;28;20428;-72
2022/12/03 11:42:45;;;;;;;14.48;10.75;;;3.60;99.90;;;;;;5049746;28;20381;-72
2022/12/03 11:45:36;;;;;;;13.13;11.20;;;3.50;99.90;;;;;;5050510;28;20448;-72
2022/12/03 11:48:13;;;;;;;13.38;11.20;;;3.50;99.90;;;;;;5049959;28;20409;-72
2022/12/03 11:50:57;;;;;;;13.43;10.83;;;3.30;99.90;;;;;;5048229;28;20565;-72
2022/12/03 11:53:25;;;;;;;15.30;11.32;;;3.50;99.90;;;;;;5029641;28;20445;-72
2022/12/03 11:56:09;;;;;;;12.50;10.38;;;3.50;99.90;;;;;;5030873;28;20753;-72
2022/12/03 11:58:38;;;;;;;13.65;11.10;;;3.20;99.90;;;;;;5017282;28;20407;-72
2022/12/03 12:01:05;;;;;;;13.68;11.05;;;3.30;99.90;;;;;;5031409;28;20477;-71
2022/12/03 12:03:34;;;;;;;12.85;10.35;;;3.30;99.90;;;;;;5040898;28;20408;-71
2022/12/03 12:06:03;;;;;;;13.30;11.10;;;3.40;99.90;;;;;;5049273;28;20915;-71
2022/12/03 12:08:29;;;;;;;12.85;10.80;;;3.60;99.90;;;;;;5050185;28;20731;-71
2022/12/03 12:10:55;;;;;;;12.82;10.38;;;3.60;99.90;;;;;;5050841;28;20468;-71
2022/12/03 12:13:30;;;;;;;14.82;11.20;;;3.20;99.90;;;;;;5049856;28;20468;-71
2022/12/03 12:16:04;;;;;;;13.20;10.75;;;3.50;99.90;;;;;;5049837;28;20412;-71
2022/12/03 12:18:36;;;;;;;15.18;10.95;;;3.70;99.90;;;;;;5049985;28;20519;-72
2022/12/03 12:21:40;;;;;;;13.15;10.63;;;3.70;99.90;;;;;;5031271;28;20420;-72
2022/12/03 12:24:29;;;;;;;14.50;11.32;;;3.20;99.90;;;;;;5034635;28;20389;-72
2022/12/03 12:27:00;;;;;;;14.25;11.80;;;3.20;99.90;;;;;;5050206;28;20374;-72
2022/12/03 12:29:26;;;;;;;13.57;11.70;;;3.20;99.90;;;;;;5051256;28;20483;-73
2022/12/03 12:32:09;;;;;;;13.15;11.00;;;3.30;99.90;;;;;;5050426;28;20421;-72
2022/12/03 12:34:49;;;;;;;15.00;12.20;;;3.60;99.90;;;;;;5045052;28;20912;-72
2022/12/03 12:37:21;;;;;;;15.35;12.20;;;3.00;99.90;;;;;;5050087;28;20385;-73
2022/12/03 12:39:51;;;;;;;15.82;12.60;;;3.20;99.90;;;;;;5031948;28;20535;-72
2022/12/03 12:42:25;;;;;;;16.75;13.25;;;3.30;99.90;;;;;;5032167;28;20776;-73
2022/12/03 12:44:51;;;;;;;15.65;12.60;;;3.60;99.90;;;;;;5031448;28;20393;-73
2022/12/03 12:47:17;;;;;;;16.08;12.68;;;3.80;99.90;;;;;;5048276;28;20879;-73
2022/12/03 12:49:42;;;;;;;15.30;12.77;;;3.70;99.90;;;;;;5038017;28;20444;-73
2022/12/03 12:52:12;;;;;;;15.23;12.32;;;3.30;99.90;;;;;;5059960;28;20434;-73
2022/12/03 12:54:38;;;;;;;13.90;11.50;;;3.10;99.90;;;;;;5061850;28;20388;-72
2022/12/03 12:57:11;;;;;;;15.55;12.95;;;3.10;99.90;;;;;;5052820;28;20393;-73
2022/12/03 12:59:36;;;;;;;15.63;12.60;;;3.30;99.90;;;;;;5064139;28;20382;-73
2022/12/03 13:02:36;;;;;;;17.20;12.68;;;3.30;99.90;;;;;;5058525;28;20419;-74
2022/12/03 13:05:03;;;;;;;15.75;12.57;;;3.40;99.90;;;;;;5042810;28;20802;-73
2022/12/03 13:07:29;;;;;;;14.70;11.93;;;3.50;99.90;;;;;;5069164;28;20381;-74
2022/12/03 13:10:15;;;;;;;14.07;11.77;;;3.50;99.90;;;;;;5060205;28;20386;-74